To NAV CANADA Home Page Login to a new session Search on AWWS site Feedback and Comments Disclaimer Vers la page française équivalente Tips FAQ What's new on the site To the Forecasts and Observations / NOTAM section To "File a Flight Plan" website Publications and other links Update of the User's profile FIC Telephone Numbers My Weather Data Folder Route Weather Data Regional Weather Data Local Weather Data To the Forecasts and Observations / NOTAM section
Request Generated 04/30/2017 at 05:09:22 UTC . Weather information available at that time is displayed.

METAR/TAF

ROBERVAL/QC    

METAR CYRJ 300500Z 32006KT 30SM OVC040 01/M06 A3024 RMK SC8 PRESRR
SLP250=
METAR CYRJ 300400Z 33012KT 25SM OVC033 01/M05 A3021 RMK SC8 SLP241=
METAR CYRJ 300300Z 31014G21KT 25SM OVC030 01/M04 A3020 RMK SC8
SLP238=

*** REMARK        : Forecast period has ended; this was the last TAF issued
*** REMARQUE : La période de prévision est échue; ceci était le dernier TAF qui a été émis
TAF CYRJ 291943Z 2920/3002 32012G22KT P6SM BKN040
RMK NXT FCST WILL BE ISSUED AT 301145Z=
Your time UTC time
Weather data provided by Environment Canada and NAV CANADA